sensor_id;sensor_type;location;lat;lon;timestamp;temperature;humidity
10530;DHT22;5313;48.834;9.228;2023-01-19T00:01:21;-0.80;99.90
10530;DHT22;5313;48.834;9.228;2023-01-19T00:03:47;-0.80;99.90
10530;DHT22;5313;48.834;9.228;2023-01-19T00:06:12;-0.80;99.90
10530;DHT22;5313;48.834;9.228;2023-01-19T00:08:38;-0.90;99.90
10530;DHT22;5313;48.834;9.228;2023-01-19T00:11:04;-0.90;99.90
10530;DHT22;5313;48.834;9.228;2023-01-19T00:13:30;-0.90;99.90
10530;DHT22;5313;48.834;9.228;2023-01-19T00:15:56;-0.90;99.90
10530;DHT22;5313;48.834;9.228;2023-01-19T00:18:21;-0.90;99.90
10530;DHT22;5313;48.834;9.228;2023-01-19T00:20:47;-0.90;99.90
10530;DHT22;5313;48.834;9.228;2023-01-19T00:23:14;-0.90;99.90
10530;DHT22;5313;48.834;9.228;2023-01-19T00:25:40;-0.90;99.90
10530;DHT22;5313;48.834;9.228;2023-01-19T00:28:10;-0.90;99.90
10530;DHT22;5313;48.834;9.228;2023-01-19T00:30:36;-1.00;99.90
10530;DHT22;5313;48.834;9.228;2023-01-19T00:33:03;-1.00;99.90
10530;DHT22;5313;48.834;9.228;2023-01-19T00:35:28;-1.00;99.90
10530;DHT22;5313;48.834;9.228;2023-01-19T00:37:55;-1.10;99.90
10530;DHT22;5313;48.834;9.228;2023-01-19T00:40:21;-1.10;99.90
10530;DHT22;5313;48.834;9.228;2023-01-19T00:42:47;-1.10;99.90
10530;DHT22;5313;48.834;9.228;2023-01-19T00:45:18;-1.10;99.90
10530;DHT22;5313;48.834;9.228;2023-01-19T00:47:45;-1.10;99.90
10530;DHT22;5313;48.834;9.228;2023-01-19T00:50:12;-1.10;99.90
10530;DHT22;5313;48.834;9.228;2023-01-19T00:52:39;-1.10;99.90
10530;DHT22;5313;48.834;9.228;2023-01-19T00:55:06;-1.10;99.90
10530;DHT22;5313;48.834;9.228;2023-01-19T00:57:32;-1.10;99.90
10530;DHT22;5313;48.834;9.228;2023-01-19T00:59:58;-1.10;99.90
10530;DHT22;5313;48.834;9.228;2023-01-19T01:02:24;-1.10;99.90
10530;DHT22;5313;48.834;9.228;2023-01-19T01:04:49;-1.10;99.90
10530;DHT22;5313;48.834;9.228;2023-01-19T01:07:21;-1.10;99.90
10530;DHT22;5313;48.834;9.228;2023-01-19T01:09:47;-1.10;99.90
10530;DHT22;5313;48.834;9.228;2023-01-19T01:12:12;-1.10;99.90
10530;DHT22;5313;48.834;9.228;2023-01-19T01:14:38;-1.10;99.90
10530;DHT22;5313;48.834;9.228;2023-01-19T01:17:03;-1.20;99.90
10530;DHT22;5313;48.834;9.228;2023-01-19T01:19:29;-1.10;99.90
10530;DHT22;5313;48.834;9.228;2023-01-19T01:21:54;-1.20;99.90
10530;DHT22;5313;48.834;9.228;2023-01-19T01:24:20;-1.20;99.90
10530;DHT22;5313;48.834;9.228;2023-01-19T01:26:46;-1.20;99.90
10530;DHT22;5313;48.834;9.228;2023-01-19T01:29:12;-1.30;99.90
10530;DHT22;5313;48.834;9.228;2023-01-19T01:31:37;-1.30;99.90
10530;DHT22;5313;48.834;9.228;2023-01-19T01:34:03;-1.30;99.90
10530;DHT22;5313;48.834;9.228;2023-01-19T01:36:28;-1.30;99.90
10530;DHT22;5313;48.834;9.228;2023-01-19T01:38:56;-1.30;99.90
10530;DHT22;5313;48.834;9.228;2023-01-19T01:41:22;-1.30;99.90
10530;DHT22;5313;48.834;9.228;2023-01-19T01:43:50;-1.30;99.90
10530;DHT22;5313;48.834;9.228;2023-01-19T01:46:18;-1.40;99.90
10530;DHT22;5313;48.834;9.228;2023-01-19T01:48:50;-1.40;99.90
10530;DHT22;5313;48.834;9.228;2023-01-19T01:56:35;-1.30;99.90
10530;DHT22;5313;48.834;9.228;2023-01-19T01:59:04;-1.30;99.90
10530;DHT22;5313;48.834;9.228;2023-01-19T02:01:31;-1.40;99.90
10530;DHT22;5313;48.834;9.228;2023-01-19T02:04:15;-1.40;99.90
10530;DHT22;5313;48.834;9.228;2023-01-19T02:06:41;-1.40;99.90
10530;DHT22;5313;48.834;9.228;2023-01-19T02:09:26;-1.40;99.90
10530;DHT22;5313;48.834;9.228;2023-01-19T02:12:12;-1.40;99.90
10530;DHT22;5313;48.834;9.228;2023-01-19T02:14:56;-1.40;99.90
10530;DHT22;5313;48.834;9.228;2023-01-19T02:17:21;-1.40;99.90
10530;DHT22;5313;48.834;9.228;2023-01-19T02:19:47;-1.40;99.90
10530;DHT22;5313;48.834;9.228;2023-01-19T02:22:19;-1.40;99.90
10530;DHT22;5313;48.834;9.228;2023-01-19T02:24:48;-1.40;99.90
10530;DHT22;5313;48.834;9.228;2023-01-19T02:27:14;-1.40;99.90
10530;DHT22;5313;48.834;9.228;2023-01-19T02:29:40;-1.40;99.90
10530;DHT22;5313;48.834;9.228;2023-01-19T02:32:06;-1.40;99.90
10530;DHT22;5313;48.834;9.228;2023-01-19T02:34:32;-1.40;99.90
10530;DHT22;5313;48.834;9.228;2023-01-19T02:37:01;-1.40;99.90
10530;DHT22;5313;48.834;9.228;2023-01-19T02:39:44;-1.40;99.90
10530;DHT22;5313;48.834;9.228;2023-01-19T02:42:17;-1.40;99.90
10530;DHT22;5313;48.834;9.228;2023-01-19T02:44:46;-1.30;99.90
10530;DHT22;5313;48.834;9.228;2023-01-19T02:47:13;-1.40;99.90
10530;DHT22;5313;48.834;9.228;2023-01-19T02:49:38;-1.40;99.90
10530;DHT22;5313;48.834;9.228;2023-01-19T02:52:04;-1.40;99.90
10530;DHT22;5313;48.834;9.228;2023-01-19T02:55:00;-1.40;99.90
10530;DHT22;5313;48.834;9.228;2023-01-19T03:03:30;-1.50;99.90
10530;DHT22;5313;48.834;9.228;2023-01-19T03:06:04;-1.50;99.90
10530;DHT22;5313;48.834;9.228;2023-01-19T03:11:10;-1.50;99.90
10530;DHT22;5313;48.834;9.228;2023-01-19T03:16:24;-1.50;99.90
10530;DHT22;5313;48.834;9.228;2023-01-19T03:19:01;-1.50;99.90
10530;DHT22;5313;48.834;9.228;2023-01-19T03:21:27;-1.50;99.90
10530;DHT22;5313;48.834;9.228;2023-01-19T03:23:56;-1.50;99.90
10530;DHT22;5313;48.834;9.228;2023-01-19T03:26:27;-1.50;99.90
10530;DHT22;5313;48.834;9.228;2023-01-19T03:28:57;-1.50;99.90
10530;DHT22;5313;48.834;9.228;2023-01-19T03:31:28;-1.50;99.90
10530;DHT22;5313;48.834;9.228;2023-01-19T03:33:59;-1.50;99.90
10530;DHT22;5313;48.834;9.228;2023-01-19T03:36:39;-1.60;99.90
10530;DHT22;5313;48.834;9.228;2023-01-19T03:39:08;-1.60;99.90
10530;DHT22;5313;48.834;9.228;2023-01-19T03:41:34;-1.60;99.90
10530;DHT22;5313;48.834;9.228;2023-01-19T03:44:02;-1.60;99.90
10530;DHT22;5313;48.834;9.228;2023-01-19T03:46:30;-1.60;99.90
10530;DHT22;5313;48.834;9.228;2023-01-19T03:48:57;-1.60;99.90
10530;DHT22;5313;48.834;9.228;2023-01-19T03:51:23;-1.60;99.90
10530;DHT22;5313;48.834;9.228;2023-01-19T03:53:48;-1.60;99.90
10530;DHT22;5313;48.834;9.228;2023-01-19T03:56:20;-1.60;99.90
10530;DHT22;5313;48.834;9.228;2023-01-19T03:58:46;-1.60;99.90
10530;DHT22;5313;48.834;9.228;2023-01-19T04:01:13;-1.60;99.90
10530;DHT22;5313;48.834;9.228;2023-01-19T04:03:39;-1.60;99.90
10530;DHT22;5313;48.834;9.228;2023-01-19T04:06:05;-1.60;99.90
10530;DHT22;5313;48.834;9.228;2023-01-19T04:08:31;-1.60;99.90
10530;DHT22;5313;48.834;9.228;2023-01-19T04:10:57;-1.60;99.90
10530;DHT22;5313;48.834;9.228;2023-01-19T04:13:23;-1.70;99.90
10530;DHT22;5313;48.834;9.228;2023-01-19T04:15:48;-1.70;99.90
10530;DHT22;5313;48.834;9.228;2023-01-19T04:18:14;-1.70;99.90
10530;DHT22;5313;48.834;9.228;2023-01-19T04:20:39;-1.70;99.90
10530;DHT22;5313;48.834;9.228;2023-01-19T04:23:05;-1.80;99.90
10530;DHT22;5313;48.834;9.228;2023-01-19T04:25:30;-1.80;99.90
10530;DHT22;5313;48.834;9.228;2023-01-19T04:27:56;-1.80;99.90
10530;DHT22;5313;48.834;9.228;2023-01-19T04:30:25;-1.80;99.90
10530;DHT22;5313;48.834;9.228;2023-01-19T04:32:51;-1.80;99.90
10530;DHT22;5313;48.834;9.228;2023-01-19T04:35:18;-1.80;99.90
10530;DHT22;5313;48.834;9.228;2023-01-19T04:37:43;-1.80;99.90
10530;DHT22;5313;48.834;9.228;2023-01-19T04:40:09;-1.80;99.90
10530;DHT22;5313;48.834;9.228;2023-01-19T04:42:35;-1.80;99.90
10530;DHT22;5313;48.834;9.228;2023-01-19T04:45:01;-1.80;99.90
10530;DHT22;5313;48.834;9.228;2023-01-19T04:47:27;-1.80;99.90
10530;DHT22;5313;48.834;9.228;2023-01-19T04:49:53;-1.90;99.90
10530;DHT22;5313;48.834;9.228;2023-01-19T04:52:18;-1.90;99.90
10530;DHT22;5313;48.834;9.228;2023-01-19T04:54:44;-1.90;99.90
10530;DHT22;5313;48.834;9.228;2023-01-19T04:57:10;-1.90;99.90
10530;DHT22;5313;48.834;9.228;2023-01-19T04:59:35;-1.90;99.90
10530;DHT22;5313;48.834;9.228;2023-01-19T05:02:01;-1.90;99.90
10530;DHT22;5313;48.834;9.228;2023-01-19T05:04:26;-1.80;99.90
10530;DHT22;5313;48.834;9.228;2023-01-19T05:06:52;-1.80;99.90
10530;DHT22;5313;48.834;9.228;2023-01-19T05:09:18;-1.80;99.90
10530;DHT22;5313;48.834;9.228;2023-01-19T05:11:44;-1.80;99.90
10530;DHT22;5313;48.834;9.228;2023-01-19T05:14:09;-1.80;99.90
10530;DHT22;5313;48.834;9.228;2023-01-19T05:16:35;-1.80;99.90
10530;DHT22;5313;48.834;9.228;2023-01-19T05:19:01;-1.80;99.90
10530;DHT22;5313;48.834;9.228;2023-01-19T05:21:27;-1.80;99.90
10530;DHT22;5313;48.834;9.228;2023-01-19T05:23:52;-1.80;99.90
10530;DHT22;5313;48.834;9.228;2023-01-19T05:26:18;-1.80;99.90
10530;DHT22;5313;48.834;9.228;2023-01-19T05:28:43;-1.80;99.90
10530;DHT22;5313;48.834;9.228;2023-01-19T05:31:09;-1.80;99.90
10530;DHT22;5313;48.834;9.228;2023-01-19T05:33:34;-1.80;99.90
10530;DHT22;5313;48.834;9.228;2023-01-19T05:36:00;-1.80;99.90
10530;DHT22;5313;48.834;9.228;2023-01-19T05:38:26;-1.70;99.90
10530;DHT22;5313;48.834;9.228;2023-01-19T05:40:56;-1.70;99.90
10530;DHT22;5313;48.834;9.228;2023-01-19T05:43:22;-1.70;99.90
10530;DHT22;5313;48.834;9.228;2023-01-19T05:45:49;-1.70;99.90
10530;DHT22;5313;48.834;9.228;2023-01-19T05:48:15;-1.70;99.90
10530;DHT22;5313;48.834;9.228;2023-01-19T05:50:40;-1.70;99.90
10530;DHT22;5313;48.834;9.228;2023-01-19T05:53:06;-1.60;99.90
10530;DHT22;5313;48.834;9.228;2023-01-19T05:55:32;-1.60;99.90
10530;DHT22;5313;48.834;9.228;2023-01-19T05:57:57;-1.60;99.90
10530;DHT22;5313;48.834;9.228;2023-01-19T06:00:23;-1.60;99.90
10530;DHT22;5313;48.834;9.228;2023-01-19T06:02:50;-1.60;99.90
10530;DHT22;5313;48.834;9.228;2023-01-19T06:05:15;-1.60;99.90
10530;DHT22;5313;48.834;9.228;2023-01-19T06:07:41;-1.60;99.90
10530;DHT22;5313;48.834;9.228;2023-01-19T06:10:07;-1.60;99.90
10530;DHT22;5313;48.834;9.228;2023-01-19T06:12:33;-1.60;99.90
10530;DHT22;5313;48.834;9.228;2023-01-19T06:14:59;-1.60;99.90
10530;DHT22;5313;48.834;9.228;2023-01-19T06:17:24;-1.60;99.90
10530;DHT22;5313;48.834;9.228;2023-01-19T06:19:50;-1.70;99.90
10530;DHT22;5313;48.834;9.228;2023-01-19T06:22:15;-1.70;99.90
10530;DHT22;5313;48.834;9.228;2023-01-19T06:24:41;-1.70;99.90
10530;DHT22;5313;48.834;9.228;2023-01-19T06:27:07;-1.70;99.90
10530;DHT22;5313;48.834;9.228;2023-01-19T06:29:32;-1.80;99.90
10530;DHT22;5313;48.834;9.228;2023-01-19T06:31:58;-1.70;99.90
10530;DHT22;5313;48.834;9.228;2023-01-19T06:34:23;-1.80;99.90
10530;DHT22;5313;48.834;9.228;2023-01-19T06:36:54;-1.80;99.90
10530;DHT22;5313;48.834;9.228;2023-01-19T06:39:20;-1.80;99.90
10530;DHT22;5313;48.834;9.228;2023-01-19T06:41:45;-1.70;99.90
10530;DHT22;5313;48.834;9.228;2023-01-19T06:44:11;-1.70;99.90
10530;DHT22;5313;48.834;9.228;2023-01-19T06:46:36;-1.70;99.90
10530;DHT22;5313;48.834;9.228;2023-01-19T06:49:02;-1.60;99.90
10530;DHT22;5313;48.834;9.228;2023-01-19T06:51:28;-1.60;99.90
10530;DHT22;5313;48.834;9.228;2023-01-19T06:53:53;-1.60;99.90
10530;DHT22;5313;48.834;9.228;2023-01-19T06:56:18;-1.60;99.90
10530;DHT22;5313;48.834;9.228;2023-01-19T06:58:46;-1.60;99.90
10530;DHT22;5313;48.834;9.228;2023-01-19T07:01:11;-1.50;99.90
10530;DHT22;5313;48.834;9.228;2023-01-19T07:03:37;-1.50;99.90
10530;DHT22;5313;48.834;9.228;2023-01-19T07:06:03;-1.60;99.90
10530;DHT22;5313;48.834;9.228;2023-01-19T07:08:31;-1.60;99.90
10530;DHT22;5313;48.834;9.228;2023-01-19T07:11:08;-1.60;99.90
10530;DHT22;5313;48.834;9.228;2023-01-19T07:13:35;-1.60;99.90
10530;DHT22;5313;48.834;9.228;2023-01-19T07:16:06;-1.60;99.90
10530;DHT22;5313;48.834;9.228;2023-01-19T07:18:32;-1.60;99.90
10530;DHT22;5313;48.834;9.228;2023-01-19T07:20:59;-1.60;99.90
10530;DHT22;5313;48.834;9.228;2023-01-19T07:23:24;-1.50;99.90
10530;DHT22;5313;48.834;9.228;2023-01-19T07:25:50;-1.50;99.90
10530;DHT22;5313;48.834;9.228;2023-01-19T07:28:15;-1.50;99.90
10530;DHT22;5313;48.834;9.228;2023-01-19T07:30:42;-1.50;99.90
10530;DHT22;5313;48.834;9.228;2023-01-19T07:33:08;-1.50;99.90
10530;DHT22;5313;48.834;9.228;2023-01-19T07:35:33;-1.50;99.90
10530;DHT22;5313;48.834;9.228;2023-01-19T07:37:59;-1.50;99.90
10530;DHT22;5313;48.834;9.228;2023-01-19T07:40:24;-1.50;99.90
10530;DHT22;5313;48.834;9.228;2023-01-19T07:42:50;-1.50;99.90
10530;DHT22;5313;48.834;9.228;2023-01-19T07:45:17;-1.50;99.90
10530;DHT22;5313;48.834;9.228;2023-01-19T07:47:43;-1.50;99.90
10530;DHT22;5313;48.834;9.228;2023-01-19T07:50:10;-1.50;99.90
10530;DHT22;5313;48.834;9.228;2023-01-19T07:52:36;-1.50;99.90
10530;DHT22;5313;48.834;9.228;2023-01-19T07:55:02;-1.50;99.90
10530;DHT22;5313;48.834;9.228;2023-01-19T07:57:28;-1.50;99.90
10530;DHT22;5313;48.834;9.228;2023-01-19T07:59:54;-1.30;99.90
10530;DHT22;5313;48.834;9.228;2023-01-19T08:02:19;-1.40;99.90
10530;DHT22;5313;48.834;9.228;2023-01-19T08:04:47;-1.40;99.90
10530;DHT22;5313;48.834;9.228;2023-01-19T08:07:12;-1.40;99.90
10530;DHT22;5313;48.834;9.228;2023-01-19T08:09:38;-1.40;99.90
10530;DHT22;5313;48.834;9.228;2023-01-19T08:12:04;-1.30;99.90
10530;DHT22;5313;48.834;9.228;2023-01-19T08:14:29;-1.30;99.90
10530;DHT22;5313;48.834;9.228;2023-01-19T08:16:58;-1.30;99.90
10530;DHT22;5313;48.834;9.228;2023-01-19T08:19:24;-1.30;99.90
10530;DHT22;5313;48.834;9.228;2023-01-19T08:21:50;-1.20;99.90
10530;DHT22;5313;48.834;9.228;2023-01-19T08:24:20;-1.30;99.90
10530;DHT22;5313;48.834;9.228;2023-01-19T08:26:47;-1.10;99.90
10530;DHT22;5313;48.834;9.228;2023-01-19T08:29:13;-1.10;99.90
10530;DHT22;5313;48.834;9.228;2023-01-19T08:31:38;-1.00;99.90
10530;DHT22;5313;48.834;9.228;2023-01-19T08:34:04;-1.00;99.90
10530;DHT22;5313;48.834;9.228;2023-01-19T08:36:30;-0.90;99.90
10530;DHT22;5313;48.834;9.228;2023-01-19T08:38:56;-0.80;99.90
10530;DHT22;5313;48.834;9.228;2023-01-19T08:41:21;-0.70;99.90
10530;DHT22;5313;48.834;9.228;2023-01-19T08:43:48;-0.70;99.90
10530;DHT22;5313;48.834;9.228;2023-01-19T08:46:14;-0.50;99.90
10530;DHT22;5313;48.834;9.228;2023-01-19T08:48:42;-0.60;99.90
10530;DHT22;5313;48.834;9.228;2023-01-19T08:51:10;-0.50;99.90
10530;DHT22;5313;48.834;9.228;2023-01-19T08:53:36;-0.20;99.90
10530;DHT22;5313;48.834;9.228;2023-01-19T08:56:02;-0.10;99.90
10530;DHT22;5313;48.834;9.228;2023-01-19T08:58:27;0.10;99.90
10530;DHT22;5313;48.834;9.228;2023-01-19T09:00:53;-0.10;99.90
10530;DHT22;5313;48.834;9.228;2023-01-19T09:03:19;-0.20;99.90
10530;DHT22;5313;48.834;9.228;2023-01-19T09:05:46;0.00;99.90
10530;DHT22;5313;48.834;9.228;2023-01-19T09:08:13;0.30;99.90
10530;DHT22;5313;48.834;9.228;2023-01-19T09:10:47;0.50;99.90
10530;DHT22;5313;48.834;9.228;2023-01-19T09:13:13;0.70;99.90
10530;DHT22;5313;48.834;9.228;2023-01-19T09:15:40;0.70;99.90
10530;DHT22;5313;48.834;9.228;2023-01-19T09:18:09;0.50;99.90
10530;DHT22;5313;48.834;9.228;2023-01-19T09:20:37;0.60;99.90
10530;DHT22;5313;48.834;9.228;2023-01-19T09:23:03;0.90;99.90
10530;DHT22;5313;48.834;9.228;2023-01-19T09:25:29;1.00;99.90
10530;DHT22;5313;48.834;9.228;2023-01-19T09:27:55;0.90;99.90
10530;DHT22;5313;48.834;9.228;2023-01-19T09:30:21;0.70;99.90
10530;DHT22;5313;48.834;9.228;2023-01-19T09:32:46;0.50;99.90
10530;DHT22;5313;48.834;9.228;2023-01-19T09:35:12;0.50;99.90
10530;DHT22;5313;48.834;9.228;2023-01-19T09:37:38;0.60;99.90
10530;DHT22;5313;48.834;9.228;2023-01-19T09:40:05;0.60;99.90
10530;DHT22;5313;48.834;9.228;2023-01-19T09:42:42;0.60;99.90
10530;DHT22;5313;48.834;9.228;2023-01-19T09:45:38;0.70;99.90
10530;DHT22;5313;48.834;9.228;2023-01-19T09:48:28;0.70;99.90
10530;DHT22;5313;48.834;9.228;2023-01-19T09:50:58;0.80;99.90
10530;DHT22;5313;48.834;9.228;2023-01-19T09:53:48;0.80;99.90
10530;DHT22;5313;48.834;9.228;2023-01-19T09:56:16;0.90;99.90
10530;DHT22;5313;48.834;9.228;2023-01-19T09:58:44;0.90;99.90
10530;DHT22;5313;48.834;9.228;2023-01-19T10:01:38;1.00;99.90
10530;DHT22;5313;48.834;9.228;2023-01-19T10:04:27;1.00;99.90
10530;DHT22;5313;48.834;9.228;2023-01-19T10:07:06;1.10;99.90
10530;DHT22;5313;48.834;9.228;2023-01-19T10:09:48;1.10;99.90
10530;DHT22;5313;48.834;9.228;2023-01-19T10:12:29;1.10;99.90
10530;DHT22;5313;48.834;9.228;2023-01-19T10:17:58;1.20;99.90
10530;DHT22;5313;48.834;9.228;2023-01-19T10:20:31;1.30;99.90
10530;DHT22;5313;48.834;9.228;2023-01-19T10:22:59;1.50;99.90
10530;DHT22;5313;48.834;9.228;2023-01-19T10:25:26;1.60;99.90
10530;DHT22;5313;48.834;9.228;2023-01-19T10:27:52;1.60;99.90
10530;DHT22;5313;48.834;9.228;2023-01-19T10:30:23;1.40;99.90
10530;DHT22;5313;48.834;9.228;2023-01-19T10:32:50;1.40;99.90
10530;DHT22;5313;48.834;9.228;2023-01-19T10:35:21;1.40;99.90
10530;DHT22;5313;48.834;9.228;2023-01-19T10:37:57;1.30;99.90
10530;DHT22;5313;48.834;9.228;2023-01-19T10:40:32;1.50;99.90
10530;DHT22;5313;48.834;9.228;2023-01-19T10:42:59;1.60;99.90
10530;DHT22;5313;48.834;9.228;2023-01-19T10:45:27;1.60;99.90
10530;DHT22;5313;48.834;9.228;2023-01-19T10:47:57;1.50;99.90
10530;DHT22;5313;48.834;9.228;2023-01-19T10:50:29;1.40;99.90
10530;DHT22;5313;48.834;9.228;2023-01-19T10:52:59;1.30;99.90
10530;DHT22;5313;48.834;9.228;2023-01-19T10:55:44;1.30;99.90
10530;DHT22;5313;48.834;9.228;2023-01-19T10:58:28;1.20;99.90
10530;DHT22;5313;48.834;9.228;2023-01-19T11:00:54;1.10;99.90
10530;DHT22;5313;48.834;9.228;2023-01-19T11:05:48;1.20;99.90
10530;DHT22;5313;48.834;9.228;2023-01-19T11:08:28;1.40;99.90
10530;DHT22;5313;48.834;9.228;2023-01-19T11:10:58;1.40;99.90
10530;DHT22;5313;48.834;9.228;2023-01-19T11:13:26;1.50;99.90
10530;DHT22;5313;48.834;9.228;2023-01-19T11:16:04;1.70;99.90
10530;DHT22;5313;48.834;9.228;2023-01-19T11:18:38;1.70;99.90
10530;DHT22;5313;48.834;9.228;2023-01-19T11:21:11;1.90;99.90
10530;DHT22;5313;48.834;9.228;2023-01-19T11:23:47;2.00;99.90
10530;DHT22;5313;48.834;9.228;2023-01-19T11:26:42;2.10;99.90
10530;DHT22;5313;48.834;9.228;2023-01-19T11:29:22;2.20;99.90
10530;DHT22;5313;48.834;9.228;2023-01-19T11:31:49;2.20;99.90
10530;DHT22;5313;48.834;9.228;2023-01-19T11:34:35;2.20;99.90
10530;DHT22;5313;48.834;9.228;2023-01-19T11:39:59;2.40;99.90
10530;DHT22;5313;48.834;9.228;2023-01-19T11:42:29;2.40;99.90
10530;DHT22;5313;48.834;9.228;2023-01-19T11:44:58;2.40;99.90
10530;DHT22;5313;48.834;9.228;2023-01-19T11:47:37;2.30;99.90
10530;DHT22;5313;48.834;9.228;2023-01-19T11:50:28;2.30;99.90
10530;DHT22;5313;48.834;9.228;2023-01-19T11:55:48;2.50;99.90
10530;DHT22;5313;48.834;9.228;2023-01-19T11:58:16;2.30;99.90
10530;DHT22;5313;48.834;9.228;2023-01-19T12:03:45;2.20;99.90
10530;DHT22;5313;48.834;9.228;2023-01-19T12:08:43;2.10;99.90
10530;DHT22;5313;48.834;9.228;2023-01-19T12:11:14;2.10;99.90
10530;DHT22;5313;48.834;9.228;2023-01-19T12:13:42;2.10;99.90
10530;DHT22;5313;48.834;9.228;2023-01-19T12:16:10;2.10;99.90
10530;DHT22;5313;48.834;9.228;2023-01-19T12:18:44;2.10;99.90
10530;DHT22;5313;48.834;9.228;2023-01-19T12:21:11;2.10;99.90
10530;DHT22;5313;48.834;9.228;2023-01-19T12:24:01;2.10;99.90
10530;DHT22;5313;48.834;9.228;2023-01-19T12:26:35;2.10;99.90
10530;DHT22;5313;48.834;9.228;2023-01-19T12:29:11;2.10;99.90
10530;DHT22;5313;48.834;9.228;2023-01-19T12:31:37;2.10;99.90
10530;DHT22;5313;48.834;9.228;2023-01-19T12:37:05;2.10;99.90
10530;DHT22;5313;48.834;9.228;2023-01-19T12:39:32;2.10;99.90
10530;DHT22;5313;48.834;9.228;2023-01-19T12:42:13;2.10;99.90
10530;DHT22;5313;48.834;9.228;2023-01-19T12:44:40;2.20;99.90
10530;DHT22;5313;48.834;9.228;2023-01-19T12:54:37;2.30;99.90
10530;DHT22;5313;48.834;9.228;2023-01-19T12:57:40;2.30;99.90
10530;DHT22;5313;48.834;9.228;2023-01-19T13:02:54;2.20;99.90
10530;DHT22;5313;48.834;9.228;2023-01-19T13:13:24;1.90;99.90
10530;DHT22;5313;48.834;9.228;2023-01-19T13:15:50;1.80;99.90
10530;DHT22;5313;48.834;9.228;2023-01-19T13:18:19;1.80;99.90
10530;DHT22;5313;48.834;9.228;2023-01-19T13:23:24;1.70;99.90
10530;DHT22;5313;48.834;9.228;2023-01-19T13:25:53;1.60;99.90
10530;DHT22;5313;48.834;9.228;2023-01-19T13:28:29;1.60;99.90
10530;DHT22;5313;48.834;9.228;2023-01-19T13:30:58;1.70;99.90
10530;DHT22;5313;48.834;9.228;2023-01-19T13:33:26;1.70;99.90
10530;DHT22;5313;48.834;9.228;2023-01-19T13:35:55;1.70;99.90
10530;DHT22;5313;48.834;9.228;2023-01-19T13:38:23;1.70;99.90
10530;DHT22;5313;48.834;9.228;2023-01-19T13:40:49;1.70;99.90
10530;DHT22;5313;48.834;9.228;2023-01-19T13:43:36;1.70;99.90
10530;DHT22;5313;48.834;9.228;2023-01-19T13:46:02;1.80;99.90
10530;DHT22;5313;48.834;9.228;2023-01-19T13:48:30;1.80;99.90
10530;DHT22;5313;48.834;9.228;2023-01-19T13:51:05;1.90;99.90
10530;DHT22;5313;48.834;9.228;2023-01-19T13:53:31;1.90;99.90
10530;DHT22;5313;48.834;9.228;2023-01-19T13:56:18;1.90;99.90
10530;DHT22;5313;48.834;9.228;2023-01-19T13:59:10;1.90;99.90
10530;DHT22;5313;48.834;9.228;2023-01-19T14:01:38;2.00;99.90
10530;DHT22;5313;48.834;9.228;2023-01-19T14:04:04;1.90;99.90
10530;DHT22;5313;48.834;9.228;2023-01-19T14:06:39;2.00;99.90
10530;DHT22;5313;48.834;9.228;2023-01-19T14:09:17;2.00;99.90
10530;DHT22;5313;48.834;9.228;2023-01-19T14:11:45;2.00;99.90
10530;DHT22;5313;48.834;9.228;2023-01-19T14:14:22;2.00;99.90
10530;DHT22;5313;48.834;9.228;2023-01-19T14:16:47;2.00;99.90
10530;DHT22;5313;48.834;9.228;2023-01-19T14:19:13;1.90;99.90
10530;DHT22;5313;48.834;9.228;2023-01-19T14:21:39;1.90;99.90
10530;DHT22;5313;48.834;9.228;2023-01-19T14:24:08;1.90;99.90
10530;DHT22;5313;48.834;9.228;2023-01-19T14:32:26;1.90;99.90
10530;DHT22;5313;48.834;9.228;2023-01-19T14:34:38;1.80;99.90
10530;DHT22;5313;48.834;9.228;2023-01-19T14:39:44;1.80;99.90
10530;DHT22;5313;48.834;9.228;2023-01-19T14:42:14;1.80;99.90
10530;DHT22;5313;48.834;9.228;2023-01-19T14:44:40;1.70;99.90
10530;DHT22;5313;48.834;9.228;2023-01-19T14:47:25;1.70;99.90
10530;DHT22;5313;48.834;9.228;2023-01-19T14:49:54;1.70;99.90
10530;DHT22;5313;48.834;9.228;2023-01-19T14:52:29;1.70;99.90
10530;DHT22;5313;48.834;9.228;2023-01-19T14:54:56;1.80;99.90
10530;DHT22;5313;48.834;9.228;2023-01-19T14:57:23;1.70;99.90
10530;DHT22;5313;48.834;9.228;2023-01-19T14:59:49;1.70;99.90
10530;DHT22;5313;48.834;9.228;2023-01-19T15:02:15;1.70;99.90
10530;DHT22;5313;48.834;9.228;2023-01-19T15:04:43;1.70;99.90
10530;DHT22;5313;48.834;9.228;2023-01-19T15:07:17;1.60;99.90
10530;DHT22;5313;48.834;9.228;2023-01-19T15:09:43;1.60;99.90
10530;DHT22;5313;48.834;9.228;2023-01-19T15:12:12;1.60;99.90
10530;DHT22;5313;48.834;9.228;2023-01-19T15:14:38;1.50;99.90
10530;DHT22;5313;48.834;9.228;2023-01-19T15:17:04;1.60;99.90
10530;DHT22;5313;48.834;9.228;2023-01-19T15:19:29;1.60;99.90
10530;DHT22;5313;48.834;9.228;2023-01-19T15:21:55;1.60;99.90
10530;DHT22;5313;48.834;9.228;2023-01-19T15:24:20;1.60;99.90
10530;DHT22;5313;48.834;9.228;2023-01-19T15:26:47;1.50;99.90
10530;DHT22;5313;48.834;9.228;2023-01-19T15:31:44;1.60;99.90
10530;DHT22;5313;48.834;9.228;2023-01-19T15:34:13;1.60;99.90
10530;DHT22;5313;48.834;9.228;2023-01-19T15:36:39;1.60;99.90
10530;DHT22;5313;48.834;9.228;2023-01-19T15:39:05;1.60;99.90
10530;DHT22;5313;48.834;9.228;2023-01-19T15:41:31;1.70;99.90
10530;DHT22;5313;48.834;9.228;2023-01-19T15:43:57;1.60;99.90
10530;DHT22;5313;48.834;9.228;2023-01-19T15:46:23;1.70;99.90
10530;DHT22;5313;48.834;9.228;2023-01-19T15:48:50;1.70;99.90
10530;DHT22;5313;48.834;9.228;2023-01-19T15:51:17;1.70;99.90
10530;DHT22;5313;48.834;9.228;2023-01-19T15:53:43;1.70;99.90
10530;DHT22;5313;48.834;9.228;2023-01-19T15:56:23;1.60;99.90
10530;DHT22;5313;48.834;9.228;2023-01-19T15:58:49;1.60;99.90
10530;DHT22;5313;48.834;9.228;2023-01-19T16:01:17;1.60;99.90
10530;DHT22;5313;48.834;9.228;2023-01-19T16:03:43;1.60;99.90
10530;DHT22;5313;48.834;9.228;2023-01-19T16:06:09;1.60;99.90
10530;DHT22;5313;48.834;9.228;2023-01-19T16:08:36;1.70;99.90
10530;DHT22;5313;48.834;9.228;2023-01-19T16:11:06;1.70;99.90
10530;DHT22;5313;48.834;9.228;2023-01-19T16:13:33;1.50;99.90
10530;DHT22;5313;48.834;9.228;2023-01-19T16:16:17;1.50;99.90
10530;DHT22;5313;48.834;9.228;2023-01-19T16:18:43;1.40;99.90
10530;DHT22;5313;48.834;9.228;2023-01-19T16:21:08;1.30;99.90
10530;DHT22;5313;48.834;9.228;2023-01-19T16:23:34;1.30;99.90
10530;DHT22;5313;48.834;9.228;2023-01-19T16:26:02;1.30;99.90
10530;DHT22;5313;48.834;9.228;2023-01-19T16:28:35;1.30;99.90
10530;DHT22;5313;48.834;9.228;2023-01-19T16:31:01;1.30;99.90
10530;DHT22;5313;48.834;9.228;2023-01-19T16:33:26;1.30;99.90
10530;DHT22;5313;48.834;9.228;2023-01-19T16:35:52;1.30;99.90
10530;DHT22;5313;48.834;9.228;2023-01-19T16:38:18;1.30;99.90
10530;DHT22;5313;48.834;9.228;2023-01-19T16:40:45;1.30;99.90
10530;DHT22;5313;48.834;9.228;2023-01-19T16:43:12;1.20;99.90
10530;DHT22;5313;48.834;9.228;2023-01-19T16:48:21;1.10;99.90
10530;DHT22;5313;48.834;9.228;2023-01-19T16:51:05;1.00;99.90
10530;DHT22;5313;48.834;9.228;2023-01-19T16:53:32;1.10;99.90
10530;DHT22;5313;48.834;9.228;2023-01-19T16:56:06;1.00;99.90
10530;DHT22;5313;48.834;9.228;2023-01-19T16:58:33;0.90;99.90
10530;DHT22;5313;48.834;9.228;2023-01-19T17:00:58;0.90;99.90
10530;DHT22;5313;48.834;9.228;2023-01-19T17:03:24;0.70;99.90
10530;DHT22;5313;48.834;9.228;2023-01-19T17:05:51;0.80;99.90
10530;DHT22;5313;48.834;9.228;2023-01-19T17:08:18;0.80;99.90
10530;DHT22;5313;48.834;9.228;2023-01-19T17:10:44;0.70;99.90
10530;DHT22;5313;48.834;9.228;2023-01-19T17:13:09;0.80;99.90